Time;durP1;ratioP1;P1;durP2;ratioP2;P2;SDS_P1;SDS_P2;PMS_P1;PMS_P2;Temp;Humidity;BMP_temperature;BMP_pressure;BME280_temperature;BME280_humidity;BME280_pressure;Samples;Min_cycle;Max_cycle;Signal;HPM_P1;HPM_P2
2023/07/11 04:01:27;;;;;;;0.70;0.10;;;22.20;1.00;;;;;;5586075;23;20489;-72
2023/07/11 04:03:55;;;;;;;0.70;0.10;;;22.10;1.00;;;;;;5013203;28;20446;-71
2023/07/11 04:06:23;;;;;;;0.70;0.20;;;22.00;1.00;;;;;;5013028;28;20983;-71
2023/07/11 04:08:51;;;;;;;0.67;0.17;;;22.00;1.00;;;;;;5013653;28;20909;-71
2023/07/11 04:11:19;;;;;;;0.70;0.10;;;22.10;1.00;;;;;;5013110;28;20526;-72
2023/07/11 04:13:47;;;;;;;0.60;0.10;;;22.10;1.00;;;;;;5013513;28;20470;-73
2023/07/11 04:16:15;;;;;;;0.70;0.20;;;;;;;;;;5034170;23;20492;-74
2023/07/11 04:18:45;;;;;;;0.70;0.10;;;22.10;1.00;;;;;;5012707;28;20815;-75
2023/07/11 04:21:13;;;;;;;0.70;0.40;;;22.00;1.00;;;;;;5012985;28;20452;-75
2023/07/11 04:23:41;;;;;;;0.60;0.10;;;22.10;1.00;;;;;;5012699;28;20500;-74
2023/07/11 04:26:08;;;;;;;0.70;0.20;;;22.10;1.00;;;;;;5012651;28;20460;-75
2023/07/11 04:28:36;;;;;;;0.70;0.20;;;22.20;1.00;;;;;;5012451;28;20869;-74
2023/07/11 04:31:04;;;;;;;0.60;0.10;;;22.20;1.00;;;;;;5012611;28;20450;-75
2023/07/11 04:33:32;;;;;;;0.70;0.20;;;22.10;1.00;;;;;;5012215;28;20456;-74
2023/07/11 04:36:08;;;;;;;0.70;0.10;;;22.10;1.00;;;;;;5007651;28;20485;-75
2023/07/11 04:38:36;;;;;;;0.70;0.10;;;22.10;1.00;;;;;;5012672;28;20466;-75
2023/07/11 04:41:05;;;;;;;0.70;0.20;;;22.10;1.00;;;;;;5023788;28;20445;-75
2023/07/11 04:43:34;;;;;;;0.60;0.10;;;22.30;1.00;;;;;;5026837;28;20528;-75
2023/07/11 04:46:03;;;;;;;0.70;0.20;;;22.30;1.00;;;;;;5019254;28;20498;-74
2023/07/11 04:48:32;;;;;;;0.80;0.40;;;22.40;1.00;;;;;;5022238;28;20910;-74
2023/07/11 04:51:02;;;;;;;0.70;0.10;;;22.40;1.00;;;;;;5023153;28;20437;-74
2023/07/11 04:53:34;;;;;;;0.70;0.20;;;22.40;1.00;;;;;;5022219;28;20447;-75
2023/07/11 04:56:03;;;;;;;0.70;0.33;;;22.40;1.00;;;;;;5015981;28;20511;-74
2023/07/11 04:58:34;;;;;;;0.70;0.10;;;18.80;1.00;;;;;;5002250;28;20447;-72
2023/07/11 05:01:02;;;;;;;0.67;0.20;;;22.40;1.00;;;;;;4992945;28;20511;-74
2023/07/11 05:03:30;;;;;;;0.70;0.20;;;;;;;;;;4992399;28;20456;-73
2023/07/11 05:05:58;;;;;;;0.70;0.10;;;22.50;1.00;;;;;;5007395;28;20476;-70
2023/07/11 05:08:27;;;;;;;0.70;0.20;;;;;;;;;;5010113;28;20490;-69
2023/07/11 05:11:02;;;;;;;0.70;0.20;;;22.50;1.00;;;;;;5014012;28;20501;-70
2023/07/11 05:13:30;;;;;;;0.67;0.20;;;22.60;1.00;;;;;;5018172;28;20460;-70
2023/07/11 05:16:00;;;;;;;0.70;0.10;;;22.70;1.00;;;;;;5022372;28;20473;-70
2023/07/11 05:18:29;;;;;;;0.70;0.20;;;22.70;1.00;;;;;;5010751;28;20449;-70
2023/07/11 05:20:57;;;;;;;0.70;0.20;;;22.70;1.00;;;;;;4995799;28;20551;-71
2023/07/11 05:23:28;;;;;;;0.70;0.10;;;22.80;1.00;;;;;;5012126;28;20497;-70
2023/07/11 05:25:57;;;;;;;0.70;0.20;;;22.90;1.00;;;;;;5015968;28;20916;-70
2023/07/11 05:28:26;;;;;;;0.70;0.20;;;22.90;1.00;;;;;;5018681;28;20491;-70
2023/07/11 05:30:54;;;;;;;1.10;0.63;;;22.90;1.00;;;;;;5020791;28;21005;-70
2023/07/11 05:33:22;;;;;;;0.70;0.10;;;23.00;1.00;;;;;;5014369;28;20805;-70
2023/07/11 05:35:59;;;;;;;0.70;0.20;;;23.20;1.00;;;;;;5024776;28;20466;-69
2023/07/11 05:38:27;;;;;;;0.70;0.10;;;;;;;;;;5021948;28;21141;-71
2023/07/11 05:40:58;;;;;;;0.70;0.20;;;23.20;1.00;;;;;;5020914;28;20466;-71
2023/07/11 05:43:26;;;;;;;0.70;0.20;;;23.10;1.00;;;;;;5025966;28;20472;-69
2023/07/11 05:45:55;;;;;;;4.83;2.00;;;;;;;;;;5030330;28;20536;-70
2023/07/11 05:48:23;;;;;;;0.70;0.20;;;;;;;;;;5030407;28;20536;-72
2023/07/11 05:50:58;;;;;;;0.70;0.10;;;23.40;1.00;;;;;;5029667;28;20441;-73
2023/07/11 05:53:27;;;;;;;0.70;0.20;;;23.40;1.00;;;;;;5007735;28;20478;-73
2023/07/11 05:55:56;;;;;;;0.70;0.10;;;;;;;;;;5014077;28;20540;-74
2023/07/11 05:58:26;;;;;;;0.70;0.20;;;23.50;1.00;;;;;;5015794;28;21184;-73
2023/07/11 06:00:55;;;;;;;0.70;0.20;;;23.50;1.00;;;;;;5015736;28;20841;-73
2023/07/11 06:03:24;;;;;;;0.70;0.20;;;23.50;1.00;;;;;;5015168;28;20451;-75
2023/07/11 06:05:53;;;;;;;0.70;0.17;;;23.50;1.00;;;;;;5014916;28;20968;-74
2023/07/11 06:08:21;;;;;;;0.70;0.20;;;23.50;1.00;;;;;;5014789;28;20482;-74
2023/07/11 06:10:49;;;;;;;0.70;0.20;;;;;;;;;;5015507;28;20712;-74
2023/07/11 06:13:17;;;;;;;1.00;0.73;;;;;;;;;;5014885;28;20955;-75
2023/07/11 06:15:47;;;;;;;0.70;0.10;;;;;;;;;;5014932;28;20489;-73
2023/07/11 06:18:15;;;;;;;0.70;0.20;;;;;;;;;;5012894;28;20471;-74
2023/07/11 06:20:43;;;;;;;0.70;0.20;;;23.70;1.00;;;;;;5014773;28;20450;-74
2023/07/11 06:23:11;;;;;;;0.70;0.20;;;23.80;1.00;;;;;;5014366;28;20469;-74
2023/07/11 06:25:39;;;;;;;0.90;0.40;;;23.80;1.00;;;;;;5014952;28;20450;-74
2023/07/11 06:28:08;;;;;;;0.70;0.20;;;;;;;;;;5014518;28;20482;-74
2023/07/11 06:30:36;;;;;;;0.70;0.10;;;23.90;1.00;;;;;;4999493;28;20544;-75
2023/07/11 06:33:05;;;;;;;0.70;0.20;;;23.90;1.00;;;;;;4995064;28;20448;-74
2023/07/11 06:35:33;;;;;;;0.70;0.10;;;;;;;;;;4994992;28;20453;-75
2023/07/11 06:38:02;;;;;;;0.70;0.20;;;;;;;;;;5002925;28;20456;-74
2023/07/11 06:40:30;;;;;;;0.70;0.10;;;;;;;;;;5011940;28;20502;-74
2023/07/11 06:42:58;;;;;;;0.70;0.20;;;24.10;1.00;;;;;;4995109;28;20449;-74
2023/07/11 06:45:26;;;;;;;0.70;0.10;;;;;;;;;;4994859;28;20456;-75
2023/07/11 06:47:54;;;;;;;0.70;0.10;;;24.20;1.00;;;;;;5001985;28;20479;-74
2023/07/11 06:50:23;;;;;;;0.70;0.20;;;24.20;1.00;;;;;;5014224;28;20444;-74
2023/07/11 06:52:53;;;;;;;0.70;0.20;;;;;;;;;;4994901;28;20456;-74
2023/07/11 06:55:21;;;;;;;0.70;0.20;;;24.30;1.00;;;;;;4999295;28;20975;-74
2023/07/11 06:57:49;;;;;;;0.70;0.30;;;24.40;1.00;;;;;;5002078;28;20465;-73
2023/07/11 07:00:18;;;;;;;0.70;0.10;;;24.30;1.00;;;;;;5006288;28;20597;-74
2023/07/11 07:02:46;;;;;;;0.70;0.20;;;24.40;1.00;;;;;;5019573;28;20483;-74
2023/07/11 07:05:15;;;;;;;0.70;0.10;;;24.50;1.00;;;;;;4996011;28;20498;-74
2023/07/11 07:07:44;;;;;;;0.70;0.30;;;;;;;;;;4992900;28;20472;-75
2023/07/11 07:10:12;;;;;;;0.70;0.10;;;;;;;;;;4996409;28;20451;-75
2023/07/11 07:12:40;;;;;;;0.70;0.20;;;24.60;1.00;;;;;;5008496;28;20469;-75
2023/07/11 07:15:09;;;;;;;0.70;0.20;;;24.70;1.00;;;;;;5022217;28;20453;-75
2023/07/11 07:17:37;;;;;;;0.70;0.20;;;24.80;1.00;;;;;;5033712;28;20473;-75
2023/07/11 07:20:06;;;;;;;1.27;0.20;;;24.80;1.00;;;;;;5011480;28;20484;-75
2023/07/11 07:22:35;;;;;;;0.70;0.10;;;;;;;;;;5033215;28;20499;-75
2023/07/11 07:25:08;;;;;;;0.70;0.10;;;25.00;1.00;;;;;;5022418;28;20472;-74
2023/07/11 07:27:51;;;;;;;0.70;0.20;;;;;;;;;;5013338;28;20455;-75
2023/07/11 07:30:19;;;;;;;0.70;0.20;;;25.10;1.00;;;;;;5022021;28;20979;-74
2023/07/11 07:32:48;;;;;;;0.70;0.10;;;;;;;;;;5013874;28;20458;-74
2023/07/11 07:35:16;;;;;;;0.70;0.10;;;25.20;1.00;;;;;;5013885;28;20506;-75
2023/07/11 07:37:43;;;;;;;0.70;0.20;;;25.30;1.00;;;;;;5013862;28;20475;-74
2023/07/11 07:40:13;;;;;;;0.70;0.13;;;25.30;1.00;;;;;;5003239;28;20447;-74
2023/07/11 07:42:41;;;;;;;0.70;0.20;;;;;;;;;;5001517;28;20531;-75
2023/07/11 07:45:10;;;;;;;0.70;0.10;;;25.50;1.00;;;;;;5013765;28;20451;-75
2023/07/11 07:47:37;;;;;;;0.70;0.10;;;25.60;1.00;;;;;;5009597;28;21121;-74
2023/07/11 07:50:06;;;;;;;0.70;0.20;;;25.70;1.00;;;;;;5006400;28;20483;-74
2023/07/11 07:52:34;;;;;;;0.70;0.37;;;25.70;1.00;;;;;;5013729;28;20444;-75
2023/07/11 07:55:02;;;;;;;0.70;0.10;;;25.80;1.00;;;;;;5012737;28;20872;-74
2023/07/11 07:57:31;;;;;;;0.70;0.10;;;25.90;1.00;;;;;;5013601;28;20467;-74
2023/07/11 08:00:00;;;;;;;0.70;0.17;;;;;;;;;;5013403;28;20440;-74
2023/07/11 08:02:31;;;;;;;0.70;0.10;;;26.10;1.00;;;;;;5013593;28;20654;-74
2023/07/11 08:04:59;;;;;;;0.70;0.10;;;26.20;1.00;;;;;;5013842;28;20447;-74
2023/07/11 08:07:27;;;;;;;0.70;0.10;;;26.20;1.00;;;;;;5012580;28;20603;-75
2023/07/11 08:09:56;;;;;;;0.70;0.20;;;26.30;1.00;;;;;;5014215;28;20483;-75
2023/07/11 08:12:25;;;;;;;6.23;5.70;;;;;;;;;;5004339;28;20892;-75
2023/07/11 08:14:54;;;;;;;0.70;0.20;;;26.30;1.00;;;;;;5012932;28;20852;-74
2023/07/11 08:17:22;;;;;;;0.70;0.20;;;26.40;1.00;;;;;;5015289;28;20555;-75
2023/07/11 08:19:50;;;;;;;0.70;0.20;;;;;;;;;;5012844;28;20456;-75
2023/07/11 08:22:18;;;;;;;0.70;0.20;;;;;;;;;;5013484;28;20475;-75
2023/07/11 08:24:47;;;;;;;0.70;0.20;;;;;;;;;;5013071;28;20622;-75
2023/07/11 08:27:15;;;;;;;0.70;0.10;;;;;;;;;;5016300;28;20562;-75
2023/07/11 08:29:45;;;;;;;0.70;0.10;;;26.50;1.00;;;;;;5007802;28;20486;-75
2023/07/11 08:32:15;;;;;;;0.70;0.20;;;26.60;1.00;;;;;;5015778;28;20555;-74
2023/07/11 08:34:43;;;;;;;0.70;0.13;;;26.60;1.00;;;;;;5000844;28;20449;-75
2023/07/11 08:37:12;;;;;;;0.70;0.10;;;;;;;;;;5014703;28;20559;-75
2023/07/11 08:39:40;;;;;;;0.70;0.10;;;26.80;1.00;;;;;;5016674;28;20455;-75
2023/07/11 08:42:30;;;;;;;0.70;0.10;;;26.80;1.00;;;;;;5015939;28;21006;-75
2023/07/11 08:45:03;;;;;;;0.70;0.20;;;26.90;1.00;;;;;;5020221;28;20479;-75
2023/07/11 08:47:37;;;;;;;0.70;0.30;;;26.80;1.00;;;;;;5019171;28;20918;-75
2023/07/11 08:50:12;;;;;;;0.70;0.10;;;26.80;1.00;;;;;;5012838;28;20853;-75
2023/07/11 08:52:41;;;;;;;0.70;0.10;;;27.00;1.00;;;;;;5012771;28;20474;-75
2023/07/11 08:55:14;;;;;;;0.70;0.10;;;27.00;1.00;;;;;;5017845;28;20448;-74
2023/07/11 08:57:46;;;;;;;0.70;0.20;;;27.10;1.00;;;;;;5026729;28;20479;-76
2023/07/11 09:00:17;;;;;;;0.70;0.17;;;27.20;1.00;;;;;;5021301;28;20439;-76
2023/07/11 09:03:01;;;;;;;0.70;0.20;;;27.20;1.00;;;;;;5028682;28;20569;-74
2023/07/11 09:05:36;;;;;;;0.70;0.10;;;27.30;1.00;;;;;;5021062;28;20534;-75
2023/07/11 09:08:04;;;;;;;0.70;0.20;;;27.40;1.00;;;;;;5012068;28;20890;-75
2023/07/11 09:10:41;;;;;;;0.70;0.13;;;27.50;1.00;;;;;;5011328;28;20997;-74
2023/07/11 09:13:27;;;;;;;0.70;0.20;;;27.60;1.00;;;;;;5011917;28;20494;-75
2023/07/11 09:16:06;;;;;;;0.70;0.10;;;27.70;1.00;;;;;;5010728;28;20476;-74
2023/07/11 09:18:45;;;;;;;0.70;0.20;;;27.80;1.00;;;;;;5012332;28;20448;-75
2023/07/11 09:21:20;;;;;;;0.70;0.10;;;27.80;1.00;;;;;;5012474;28;20526;-74
2023/07/11 09:24:00;;;;;;;0.70;0.20;;;27.90;1.00;;;;;;4998544;28;20448;-75
2023/07/11 09:26:49;;;;;;;0.70;0.10;;;27.90;1.00;;;;;;4992704;28;20473;-76
2023/07/11 09:29:19;;;;;;;0.70;0.10;;;28.00;1.00;;;;;;4993217;28;21048;-76
2023/07/11 09:31:51;;;;;;;0.70;0.10;;;28.10;1.00;;;;;;4996163;28;20448;-75
2023/07/11 09:34:25;;;;;;;0.70;0.10;;;28.20;1.00;;;;;;5013443;28;20977;-75
2023/07/11 09:36:56;;;;;;;1.60;1.50;;;28.30;1.00;;;;;;5016220;28;20485;-75
2023/07/11 09:39:35;;;;;;;0.70;0.10;;;28.20;1.00;;;;;;5015990;28;20444;-75
2023/07/11 09:42:09;;;;;;;0.70;0.20;;;28.30;1.00;;;;;;5002313;28;20496;-75
2023/07/11 09:44:37;;;;;;;0.70;0.10;;;28.40;1.00;;;;;;5019748;28;20502;-75
2023/07/11 09:47:17;;;;;;;0.80;0.43;;;28.50;1.00;;;;;;4996747;28;20476;-75
2023/07/11 09:49:48;;;;;;;0.80;0.50;;;28.50;1.00;;;;;;4997374;28;20845;-74
2023/07/11 09:52:26;;;;;;;0.70;0.20;;;28.50;1.00;;;;;;4997195;28;20476;-75
2023/07/11 09:54:55;;;;;;;1.73;1.13;;;28.50;1.00;;;;;;4997832;28;20445;-75
2023/07/11 09:57:38;;;;;;;0.70;0.10;;;28.70;1.00;;;;;;5015115;28;20477;-74
2023/07/11 10:00:09;;;;;;;0.80;0.30;;;28.70;1.00;;;;;;5016546;28;20445;-74
2023/07/11 10:02:50;;;;;;;0.70;0.10;;;28.70;1.00;;;;;;5016023;28;20445;-75
2023/07/11 10:05:23;;;;;;;0.70;0.20;;;28.80;1.00;;;;;;5014876;28;20449;-74
2023/07/11 10:08:00;;;;;;;0.70;0.20;;;28.90;1.00;;;;;;4996741;28;20445;-75
2023/07/11 10:10:28;;;;;;;0.70;0.10;;;29.00;1.00;;;;;;5022899;28;20539;-75
2023/07/11 10:13:02;;;;;;;0.70;0.20;;;29.00;1.00;;;;;;4996774;28;20445;-75
2023/07/11 10:15:48;;;;;;;0.70;0.10;;;29.10;1.00;;;;;;5021346;28;22151;-76
2023/07/11 10:18:18;;;;;;;0.70;0.20;;;29.20;1.00;;;;;;5036063;28;20475;-76
2023/07/11 10:20:50;;;;;;;0.70;0.20;;;29.30;1.00;;;;;;5009185;28;20485;-75
2023/07/11 10:23:22;;;;;;;0.70;0.10;;;29.40;1.00;;;;;;4995498;28;20481;-75
2023/07/11 10:25:53;;;;;;;1.00;0.83;;;29.50;1.00;;;;;;5020138;28;20496;-75
2023/07/11 10:28:31;;;;;;;0.70;0.20;;;29.50;1.00;;;;;;5027078;28;20540;-75
2023/07/11 10:31:08;;;;;;;0.80;0.40;;;29.70;1.00;;;;;;5026997;28;20527;-74
2023/07/11 10:33:44;;;;;;;0.80;0.20;;;29.70;1.00;;;;;;5022510;28;20936;-75
2023/07/11 10:36:30;;;;;;;0.70;0.20;;;29.70;1.00;;;;;;5022052;28;20467;-74
2023/07/11 10:39:00;;;;;;;1.73;0.23;;;29.70;1.00;;;;;;5019508;28;20507;-74
2023/07/11 10:41:33;;;;;;;0.70;0.20;;;29.80;1.00;;;;;;5017016;28;20997;-75
2023/07/11 10:44:02;;;;;;;0.70;0.10;;;29.80;1.00;;;;;;5023833;28;20525;-75
2023/07/11 10:46:37;;;;;;;0.70;0.10;;;29.90;1.00;;;;;;5021044;28;20457;-75
2023/07/11 10:49:09;;;;;;;0.70;0.20;;;29.90;1.00;;;;;;5023644;28;20435;-75
2023/07/11 10:51:44;;;;;;;0.70;0.20;;;30.20;1.00;;;;;;5033336;28;20484;-75
2023/07/11 10:54:20;;;;;;;0.70;0.20;;;30.20;1.00;;;;;;5022223;28;20541;-75
2023/07/11 10:56:51;;;;;;;2.30;1.70;;;30.10;1.00;;;;;;5027683;28;20859;-74
2023/07/11 10:59:23;;;;;;;1.03;0.77;;;30.00;1.00;;;;;;5030045;28;20497;-75
2023/07/11 11:02:04;;;;;;;0.70;0.23;;;30.10;1.00;;;;;;5008790;28;20450;-75
2023/07/11 11:04:56;;;;;;;0.70;0.10;;;30.10;1.00;;;;;;5013427;28;20946;-75
2023/07/11 11:07:31;;;;;;;0.70;0.10;;;30.30;1.00;;;;;;5013971;28;20474;-76
2023/07/11 11:10:07;;;;;;;0.70;0.10;;;30.40;1.00;;;;;;5013325;28;20444;-75
2023/07/11 11:12:41;;;;;;;0.70;0.20;;;30.50;1.00;;;;;;4994032;28;20458;-76
2023/07/11 11:15:26;;;;;;;5.67;2.63;;;30.50;1.00;;;;;;4995365;28;20493;-75
2023/07/11 11:18:04;;;;;;;1.53;0.90;;;30.50;1.00;;;;;;5005309;28;20498;-75
2023/07/11 11:20:42;;;;;;;0.80;0.47;;;30.40;1.00;;;;;;5014169;28;20439;-74
2023/07/11 11:23:31;;;;;;;0.83;0.23;;;30.40;1.00;;;;;;5013181;28;20542;-74
2023/07/11 11:26:11;;;;;;;2.20;2.03;;;30.50;1.00;;;;;;5014722;28;20510;-75
2023/07/11 11:28:49;;;;;;;1.50;1.33;;;30.60;1.00;;;;;;5018827;28;20446;-74
2023/07/11 11:31:22;;;;;;;0.70;0.20;;;30.70;1.00;;;;;;5005696;28;20545;-75
2023/07/11 11:34:02;;;;;;;0.70;0.20;;;30.70;1.00;;;;;;5016524;28;20447;-75
2023/07/11 11:36:33;;;;;;;1.03;0.70;;;30.70;1.00;;;;;;5009047;28;20538;-70
2023/07/11 11:39:17;;;;;;;0.70;0.10;;;30.80;1.00;;;;;;4994218;28;20452;-72
2023/07/11 11:41:52;;;;;;;1.37;1.20;;;30.90;1.00;;;;;;4993576;28;20480;-71
2023/07/11 11:44:24;;;;;;;0.70;0.20;;;30.90;1.00;;;;;;4993872;28;20452;-71
2023/07/11 11:46:55;;;;;;;2.50;0.57;;;30.80;1.00;;;;;;4994191;28;20468;-70
2023/07/11 11:49:29;;;;;;;0.70;0.10;;;30.90;1.00;;;;;;4994163;28;20444;-70
2023/07/11 11:52:00;;;;;;;0.80;0.30;;;31.10;1.00;;;;;;5000620;28;20490;-71
2023/07/11 11:54:37;;;;;;;0.70;0.20;;;31.20;1.00;;;;;;5013192;28;20447;-72
2023/07/11 11:57:05;;;;;;;0.70;0.20;;;31.20;1.00;;;;;;5013411;28;20471;-71
2023/07/11 11:59:33;;;;;;;4.60;1.30;;;31.10;1.00;;;;;;5013820;28;20444;-72
2023/07/11 12:02:10;;;;;;;3.70;3.50;;;31.20;1.00;;;;;;5008864;28;20455;-70
2023/07/11 12:04:56;;;;;;;1.43;1.33;;;31.20;1.00;;;;;;4996463;28;20989;-69
2023/07/11 12:07:28;;;;;;;1.20;0.50;;;31.20;1.00;;;;;;4994666;28;20472;-71
2023/07/11 12:10:24;;;;;;;1.27;0.87;;;31.20;1.00;;;;;;4994259;28;20545;-72
2023/07/11 12:13:20;;;;;;;0.70;0.20;;;31.20;1.00;;;;;;4980178;28;20535;-71
2023/07/11 12:15:51;;;;;;;3.90;0.53;;;31.20;1.00;;;;;;5011487;28;20585;-71
2023/07/11 12:18:37;;;;;;;0.70;0.10;;;31.30;1.00;;;;;;5013056;28;20883;-70
2023/07/11 12:21:39;;;;;;;0.70;0.13;;;31.40;1.00;;;;;;5011906;28;20454;-70
2023/07/11 12:24:21;;;;;;;0.80;0.50;;;31.60;1.00;;;;;;5012482;28;20442;-71
2023/07/11 12:26:54;;;;;;;0.70;0.30;;;31.60;1.00;;;;;;5012932;28;20514;-71
2023/07/11 12:29:40;;;;;;;0.70;0.20;;;31.80;1.00;;;;;;5012547;28;20436;-72
2023/07/11 12:32:45;;;;;;;0.70;0.20;;;31.80;1.00;;;;;;4997043;28;20558;-70
2023/07/11 12:35:17;;;;;;;0.70;0.30;;;31.90;1.00;;;;;;5018511;28;20474;-71
2023/07/11 12:37:52;;;;;;;1.47;1.27;;;31.90;1.00;;;;;;5031884;28;20884;-70
2023/07/11 12:40:23;;;;;;;1.77;1.07;;;32.00;1.00;;;;;;5016956;28;20506;-71
2023/07/11 12:42:54;;;;;;;1.53;0.87;;;31.90;1.00;;;;;;5012029;28;20489;-71
2023/07/11 12:45:24;;;;;;;8.53;7.83;;;31.80;1.00;;;;;;5012418;28;20475;-71
2023/07/11 12:48:01;;;;;;;0.80;0.40;;;31.90;1.00;;;;;;5006373;28;20465;-70
2023/07/11 12:50:39;;;;;;;3.23;1.90;;;31.90;1.00;;;;;;5010618;28;20542;-71
2023/07/11 12:53:07;;;;;;;0.87;0.70;;;31.90;1.00;;;;;;5020270;28;21097;-72
2023/07/11 12:55:35;;;;;;;0.80;0.70;;;31.90;1.00;;;;;;5012683;28;20475;-75
2023/07/11 12:58:04;;;;;;;1.20;0.97;;;31.90;1.00;;;;;;5007479;28;20464;-72
2023/07/11 13:00:33;;;;;;;0.93;0.53;;;31.90;1.00;;;;;;5011965;28;20444;-72
2023/07/11 13:03:16;;;;;;;0.70;0.20;;;32.10;1.00;;;;;;5011377;28;20539;-73
2023/07/11 13:05:48;;;;;;;3.63;1.03;;;32.20;1.00;;;;;;5014860;28;20443;-72
2023/07/11 13:08:16;;;;;;;2.70;2.30;;;32.20;1.00;;;;;;4998399;28;20548;-75
2023/07/11 13:10:50;;;;;;;2.63;2.43;;;31.90;1.00;;;;;;5005900;28;20443;-76
2023/07/11 13:13:19;;;;;;;0.70;0.10;;;31.90;1.00;;;;;;5017483;28;20492;-76
2023/07/11 13:15:47;;;;;;;1.10;0.30;;;32.10;1.00;;;;;;5014606;28;20506;-76
2023/07/11 13:18:30;;;;;;;0.70;0.20;;;32.10;1.00;;;;;;4996933;28;20460;-76
2023/07/11 13:20:58;;;;;;;0.70;0.20;;;32.30;1.00;;;;;;4996909;28;20472;-74
2023/07/11 13:23:29;;;;;;;1.23;0.77;;;32.40;1.00;;;;;;5009525;28;20968;-76
2023/07/11 13:25:57;;;;;;;1.53;1.40;;;32.40;1.00;;;;;;5009729;28;20471;-77
2023/07/11 13:28:35;;;;;;;1.10;0.77;;;32.40;1.00;;;;;;5026880;28;20474;-77
2023/07/11 13:31:05;;;;;;;4.87;2.10;;;32.40;1.00;;;;;;5021985;28;20447;-77
2023/07/11 13:33:36;;;;;;;0.70;0.30;;;32.30;1.00;;;;;;5017245;28;20810;-77
2023/07/11 13:36:15;;;;;;;0.70;0.20;;;32.30;1.00;;;;;;5020756;28;20823;-76
2023/07/11 13:39:03;;;;;;;0.70;0.20;;;32.20;1.00;;;;;;5007259;28;20459;-76
2023/07/11 13:41:35;;;;;;;0.80;0.57;;;32.20;1.00;;;;;;5015594;28;20463;-76
2023/07/11 13:44:15;;;;;;;0.70;0.20;;;32.40;1.00;;;;;;5027412;28;20826;-76
2023/07/11 13:46:45;;;;;;;2.10;1.80;;;32.60;1.00;;;;;;5029836;28;20512;-76
2023/07/11 13:49:25;;;;;;;0.70;0.27;;;32.70;1.00;;;;;;5009555;28;20938;-76
2023/07/11 13:52:00;;;;;;;0.70;0.30;;;32.50;1.00;;;;;;5016044;28;20586;-76
2023/07/11 13:54:32;;;;;;;0.70;0.50;;;32.60;1.00;;;;;;5015730;28;20490;-75
2023/07/11 13:57:00;;;;;;;0.80;0.60;;;32.70;1.00;;;;;;5010618;28;20504;-75
2023/07/11 13:59:30;;;;;;;0.70;0.20;;;32.80;1.00;;;;;;4995849;28;20456;-77
2023/07/11 14:02:01;;;;;;;1.23;0.80;;;;;;;;;;4995936;28;20935;-76
2023/07/11 14:04:32;;;;;;;2.60;0.40;;;;;;;;;;4995154;28;20998;-74
2023/07/11 14:07:00;;;;;;;0.70;0.10;;;32.90;1.00;;;;;;4996371;28;20500;-77
2023/07/11 14:09:28;;;;;;;1.83;0.97;;;32.90;1.00;;;;;;5008548;28;20829;-77
2023/07/11 14:11:57;;;;;;;0.70;0.20;;;33.00;1.00;;;;;;5016078;28;20566;-76
2023/07/11 14:14:26;;;;;;;1.07;0.37;;;33.00;1.00;;;;;;5015966;28;20516;-75
2023/07/11 14:17:13;;;;;;;0.70;0.20;;;32.90;1.00;;;;;;5014660;28;21046;-76
2023/07/11 14:19:42;;;;;;;0.70;0.10;;;;;;;;;;5016090;28;20443;-77
2023/07/11 14:22:14;;;;;;;0.70;0.10;;;32.60;1.00;;;;;;5015032;28;20447;-75
2023/07/11 14:24:43;;;;;;;0.70;0.10;;;32.60;1.00;;;;;;5016030;28;20444;-75
2023/07/11 14:27:16;;;;;;;1.47;0.57;;;32.60;1.00;;;;;;5015368;28;20495;-76
2023/07/11 14:29:50;;;;;;;0.70;0.20;;;32.70;1.00;;;;;;5022241;28;20439;-75
2023/07/11 14:32:20;;;;;;;0.70;0.10;;;32.90;1.00;;;;;;5023148;28;20574;-75
2023/07/11 14:34:48;;;;;;;0.70;0.30;;;33.00;1.00;;;;;;5015111;28;20626;-74
2023/07/11 14:37:18;;;;;;;1.63;0.30;;;33.10;1.00;;;;;;5021906;28;20826;-75
2023/07/11 14:39:48;;;;;;;0.70;0.20;;;33.10;1.00;;;;;;5015195;28;20467;-74
2023/07/11 14:42:31;;;;;;;0.70;0.10;;;33.20;1.00;;;;;;5014009;28;20436;-74
2023/07/11 14:44:59;;;;;;;3.07;2.53;;;33.50;1.00;;;;;;5012726;28;20448;-75
2023/07/11 14:47:29;;;;;;;0.70;0.20;;;33.10;1.00;;;;;;5014569;28;20903;-75
2023/07/11 14:49:58;;;;;;;2.50;0.60;;;33.70;1.00;;;;;;5014856;28;20448;-76
2023/07/11 14:52:31;;;;;;;0.70;0.10;;;33.60;1.00;;;;;;5014438;28;20476;-75
2023/07/11 14:55:00;;;;;;;1.07;0.57;;;32.90;1.00;;;;;;5014329;28;20876;-75
2023/07/11 14:57:30;;;;;;;1.03;0.93;;;33.80;1.00;;;;;;5001750;28;20527;-75
2023/07/11 15:00:03;;;;;;;1.87;0.47;;;33.70;1.00;;;;;;5013019;28;20467;-75
2023/07/11 15:02:33;;;;;;;0.90;0.30;;;33.80;1.00;;;;;;5009996;28;20543;-77
2023/07/11 15:05:03;;;;;;;0.90;0.40;;;;;;;;;;5014223;28;20455;-76
2023/07/11 15:07:34;;;;;;;1.37;0.77;;;33.90;1.00;;;;;;5014270;28;20549;-75
2023/07/11 15:10:07;;;;;;;0.70;0.20;;;34.00;1.00;;;;;;4995140;28;20488;-76
2023/07/11 15:12:37;;;;;;;1.63;1.23;;;34.10;1.00;;;;;;5014098;28;20491;-76
2023/07/11 15:15:18;;;;;;;1.47;1.37;;;34.20;1.00;;;;;;5014446;28;20455;-76
2023/07/11 15:17:50;;;;;;;0.80;0.53;;;34.20;1.00;;;;;;5014278;28;20485;-75
2023/07/11 15:20:23;;;;;;;0.80;0.50;;;34.30;1.00;;;;;;5014340;28;20447;-76
2023/07/11 15:22:53;;;;;;;3.23;1.80;;;34.40;1.00;;;;;;5026165;28;20447;-74
2023/07/11 15:25:29;;;;;;;0.80;0.40;;;34.50;1.00;;;;;;5015627;28;20567;-75
2023/07/11 15:27:57;;;;;;;1.93;0.90;;;34.60;1.00;;;;;;5011915;28;20443;-74
2023/07/11 15:30:26;;;;;;;0.80;0.40;;;34.60;1.00;;;;;;5018832;28;20539;-75
2023/07/11 15:32:55;;;;;;;3.87;3.67;;;34.50;1.00;;;;;;5025541;28;20485;-75
2023/07/11 15:35:29;;;;;;;1.27;1.17;;;34.40;1.00;;;;;;5025655;28;20794;-74
2023/07/11 15:38:01;;;;;;;1.10;0.60;;;34.40;1.00;;;;;;5016902;28;20471;-75
2023/07/11 15:40:31;;;;;;;0.70;0.10;;;34.40;1.00;;;;;;5011708;28;20462;-76
2023/07/11 15:43:02;;;;;;;0.93;0.57;;;34.40;1.00;;;;;;5005744;28;20436;-75
2023/07/11 15:45:32;;;;;;;1.10;0.47;;;34.30;1.00;;;;;;5012426;28;20915;-75
2023/07/11 15:48:01;;;;;;;0.90;0.67;;;34.30;1.00;;;;;;5022164;28;20450;-73
2023/07/11 15:50:30;;;;;;;1.73;1.30;;;34.30;1.00;;;;;;5032437;28;20439;-74
2023/07/11 15:52:58;;;;;;;0.90;0.40;;;34.30;1.00;;;;;;5019171;28;20534;-74
2023/07/11 15:55:30;;;;;;;0.80;0.40;;;34.30;1.00;;;;;;5015623;28;20532;-74
2023/07/11 15:57:58;;;;;;;0.70;0.20;;;34.30;1.00;;;;;;5023682;28;20446;-74
2023/07/11 16:00:28;;;;;;;0.70;0.20;;;34.20;1.00;;;;;;5013118;28;20448;-73
2023/07/11 16:02:56;;;;;;;0.70;0.10;;;34.00;1.00;;;;;;5012687;28;20466;-75
2023/07/11 16:05:27;;;;;;;1.07;0.53;;;;;;;;;;5010341;28;20450;-75
2023/07/11 16:07:55;;;;;;;0.70;0.20;;;;;;;;;;4999333;28;20452;-74
2023/07/11 16:10:28;;;;;;;0.70;0.20;;;33.90;1.00;;;;;;4997245;28;20446;-75
2023/07/11 16:12:56;;;;;;;0.70;0.30;;;33.80;1.00;;;;;;5013155;28;20894;-75
2023/07/11 16:15:28;;;;;;;0.70;0.20;;;33.90;1.00;;;;;;5011744;28;20543;-75
2023/07/11 16:17:57;;;;;;;1.87;1.50;;;33.90;1.00;;;;;;5013291;28;20466;-74
2023/07/11 16:20:30;;;;;;;2.27;1.40;;;33.70;1.00;;;;;;5012755;28;20842;-73
2023/07/11 16:22:58;;;;;;;0.70;0.20;;;33.70;1.00;;;;;;5013174;28;20450;-74
2023/07/11 16:25:28;;;;;;;0.77;0.30;;;33.60;1.00;;;;;;5012753;28;20448;-74
2023/07/11 16:27:58;;;;;;;0.70;0.10;;;33.60;1.00;;;;;;5006118;28;20455;-75
2023/07/11 16:30:29;;;;;;;0.70;0.20;;;33.60;1.00;;;;;;5012895;28;20491;-74
2023/07/11 16:32:58;;;;;;;0.70;0.20;;;33.50;1.00;;;;;;5012426;28;20479;-74
2023/07/11 16:35:33;;;;;;;0.97;0.60;;;33.50;1.00;;;;;;5013359;28;20440;-73
2023/07/11 16:38:02;;;;;;;0.90;0.73;;;33.50;1.00;;;;;;5012227;28;20451;-73
2023/07/11 16:40:32;;;;;;;1.10;0.80;;;33.50;1.00;;;;;;4999081;28;20970;-73
2023/07/11 16:43:00;;;;;;;0.70;0.40;;;33.40;1.00;;;;;;4992889;28;20441;-73
2023/07/11 16:45:32;;;;;;;0.80;0.47;;;33.30;1.00;;;;;;4992885;28;20536;-74
2023/07/11 16:48:00;;;;;;;0.70;0.20;;;33.20;1.00;;;;;;4993525;28;20826;-73
2023/07/11 16:50:32;;;;;;;0.90;0.30;;;33.10;1.00;;;;;;4992930;28;21152;-73
2023/07/11 16:53:01;;;;;;;1.90;1.70;;;33.10;1.00;;;;;;4993630;28;20460;-74
2023/07/11 16:55:29;;;;;;;2.33;0.90;;;33.00;1.00;;;;;;4993537;28;20491;-74
2023/07/11 16:57:57;;;;;;;0.80;0.40;;;33.00;1.00;;;;;;4993066;28;20471;-73
2023/07/11 17:00:27;;;;;;;0.70;0.20;;;33.00;1.00;;;;;;4992886;28;20551;-75
2023/07/11 17:02:55;;;;;;;1.97;1.60;;;;;;;;;;4992346;28;20449;-74
2023/07/11 17:05:23;;;;;;;0.90;0.57;;;32.90;1.00;;;;;;4993022;28;20496;-74
2023/07/11 17:07:56;;;;;;;0.97;0.50;;;32.90;1.00;;;;;;4993306;28;20524;-73
2023/07/11 17:10:24;;;;;;;0.90;0.50;;;32.90;1.00;;;;;;4996886;28;20487;-74
2023/07/11 17:12:52;;;;;;;0.70;0.20;;;32.90;1.00;;;;;;5012553;28;20459;-74
2023/07/11 17:15:20;;;;;;;0.70;0.20;;;32.90;1.00;;;;;;5011971;28;20480;-74
2023/07/11 17:17:48;;;;;;;1.37;1.07;;;32.80;1.00;;;;;;5012712;28;20480;-74
2023/07/11 17:20:18;;;;;;;1.33;0.70;;;32.80;1.00;;;;;;5012243;28;20822;-74
2023/07/11 17:22:46;;;;;;;0.80;0.20;;;32.80;1.00;;;;;;5011917;28;20543;-74
2023/07/11 17:25:17;;;;;;;0.80;0.20;;;32.90;1.00;;;;;;5012527;28;20478;-74
2023/07/11 17:27:49;;;;;;;0.70;0.20;;;32.80;1.00;;;;;;5008376;28;21075;-73
2023/07/11 17:30:19;;;;;;;0.80;0.50;;;32.70;1.00;;;;;;4992774;28;20472;-73
2023/07/11 17:32:47;;;;;;;1.23;0.40;;;32.60;1.00;;;;;;4991947;28;20512;-73